sensor_id;sensor_type;location;lat;lon;timestamp;P1;durP1;ratioP1;P2;durP2;ratioP2
40837;SDS011;29632;49.168;9.848;2023-10-09T00:01:07;11.50;;;3.50;;
40837;SDS011;29632;49.168;9.848;2023-10-09T00:03:40;9.50;;;4.50;;
40837;SDS011;29632;49.168;9.848;2023-10-09T00:06:07;13.23;;;4.80;;
40837;SDS011;29632;49.168;9.848;2023-10-09T00:08:35;9.07;;;3.87;;
40837;SDS011;29632;49.168;9.848;2023-10-09T00:11:03;12.10;;;4.27;;
40837;SDS011;29632;49.168;9.848;2023-10-09T00:13:41;9.93;;;3.93;;
40837;SDS011;29632;49.168;9.848;2023-10-09T00:16:16;14.10;;;4.77;;
40837;SDS011;29632;49.168;9.848;2023-10-09T00:19:04;12.70;;;4.40;;
40837;SDS011;29632;49.168;9.848;2023-10-09T00:21:45;8.30;;;3.53;;
40837;SDS011;29632;49.168;9.848;2023-10-09T00:24:12;5.87;;;3.13;;
40837;SDS011;29632;49.168;9.848;2023-10-09T00:26:45;10.43;;;3.97;;
40837;SDS011;29632;49.168;9.848;2023-10-09T00:29:11;8.10;;;3.90;;
40837;SDS011;29632;49.168;9.848;2023-10-09T00:31:50;10.77;;;4.57;;
40837;SDS011;29632;49.168;9.848;2023-10-09T00:34:30;10.47;;;3.40;;
40837;SDS011;29632;49.168;9.848;2023-10-09T00:37:04;7.67;;;3.77;;
40837;SDS011;29632;49.168;9.848;2023-10-09T00:39:35;8.07;;;3.80;;
40837;SDS011;29632;49.168;9.848;2023-10-09T00:42:02;13.57;;;4.37;;
40837;SDS011;29632;49.168;9.848;2023-10-09T00:44:31;8.52;;;3.85;;
40837;SDS011;29632;49.168;9.848;2023-10-09T00:47:07;11.73;;;3.70;;
40837;SDS011;29632;49.168;9.848;2023-10-09T00:49:49;7.17;;;3.83;;
40837;SDS011;29632;49.168;9.848;2023-10-09T00:52:29;10.13;;;3.20;;
40837;SDS011;29632;49.168;9.848;2023-10-09T00:55:05;9.45;;;4.03;;
40837;SDS011;29632;49.168;9.848;2023-10-09T00:57:45;8.13;;;3.77;;
40837;SDS011;29632;49.168;9.848;2023-10-09T01:00:15;13.20;;;3.67;;
40837;SDS011;29632;49.168;9.848;2023-10-09T01:03:01;9.20;;;3.93;;
40837;SDS011;29632;49.168;9.848;2023-10-09T01:05:44;9.43;;;3.70;;
40837;SDS011;29632;49.168;9.848;2023-10-09T01:08:20;13.53;;;3.93;;
40837;SDS011;29632;49.168;9.848;2023-10-09T01:10:53;9.40;;;3.70;;
40837;SDS011;29632;49.168;9.848;2023-10-09T01:13:25;10.50;;;3.50;;
40837;SDS011;29632;49.168;9.848;2023-10-09T01:16:04;10.90;;;4.30;;
40837;SDS011;29632;49.168;9.848;2023-10-09T01:18:42;9.97;;;4.00;;
40837;SDS011;29632;49.168;9.848;2023-10-09T01:21:14;13.10;;;4.67;;
40837;SDS011;29632;49.168;9.848;2023-10-09T01:23:52;8.87;;;4.23;;
40837;SDS011;29632;49.168;9.848;2023-10-09T01:26:37;10.03;;;3.73;;
40837;SDS011;29632;49.168;9.848;2023-10-09T01:29:05;11.83;;;3.80;;
40837;SDS011;29632;49.168;9.848;2023-10-09T01:31:35;9.37;;;3.53;;
40837;SDS011;29632;49.168;9.848;2023-10-09T01:34:08;10.40;;;4.63;;
40837;SDS011;29632;49.168;9.848;2023-10-09T01:36:41;9.07;;;3.70;;
40837;SDS011;29632;49.168;9.848;2023-10-09T01:39:06;11.20;;;4.07;;
40837;SDS011;29632;49.168;9.848;2023-10-09T01:41:47;9.75;;;3.58;;
40837;SDS011;29632;49.168;9.848;2023-10-09T01:44:14;10.67;;;3.70;;
40837;SDS011;29632;49.168;9.848;2023-10-09T01:46:41;12.23;;;4.63;;
40837;SDS011;29632;49.168;9.848;2023-10-09T01:49:11;12.98;;;4.85;;
40837;SDS011;29632;49.168;9.848;2023-10-09T01:51:46;8.37;;;3.43;;
40837;SDS011;29632;49.168;9.848;2023-10-09T01:54:14;8.53;;;4.30;;
40837;SDS011;29632;49.168;9.848;2023-10-09T01:56:42;11.43;;;4.03;;
40837;SDS011;29632;49.168;9.848;2023-10-09T01:59:11;11.93;;;4.68;;
40837;SDS011;29632;49.168;9.848;2023-10-09T02:01:37;10.40;;;4.20;;
40837;SDS011;29632;49.168;9.848;2023-10-09T02:04:07;11.90;;;3.88;;
40837;SDS011;29632;49.168;9.848;2023-10-09T02:10:12;13.70;;;3.65;;
40837;SDS011;29632;49.168;9.848;2023-10-09T02:13:01;7.53;;;3.53;;
40837;SDS011;29632;49.168;9.848;2023-10-09T02:15:32;9.60;;;3.83;;
40837;SDS011;29632;49.168;9.848;2023-10-09T02:18:06;11.37;;;3.73;;
40837;SDS011;29632;49.168;9.848;2023-10-09T02:21:04;9.07;;;2.93;;
40837;SDS011;29632;49.168;9.848;2023-10-09T02:23:33;9.90;;;4.10;;
40837;SDS011;29632;49.168;9.848;2023-10-09T02:26:10;12.33;;;4.13;;
40837;SDS011;29632;49.168;9.848;2023-10-09T02:28:56;7.60;;;3.53;;
40837;SDS011;29632;49.168;9.848;2023-10-09T02:31:28;8.43;;;4.27;;
40837;SDS011;29632;49.168;9.848;2023-10-09T02:34:06;9.43;;;3.90;;
40837;SDS011;29632;49.168;9.848;2023-10-09T02:36:40;10.63;;;4.30;;
40837;SDS011;29632;49.168;9.848;2023-10-09T02:39:07;11.37;;;3.97;;
40837;SDS011;29632;49.168;9.848;2023-10-09T02:41:47;7.20;;;3.80;;
40837;SDS011;29632;49.168;9.848;2023-10-09T02:44:20;10.97;;;4.43;;
40837;SDS011;29632;49.168;9.848;2023-10-09T02:46:55;12.47;;;3.57;;
40837;SDS011;29632;49.168;9.848;2023-10-09T02:49:23;10.50;;;4.40;;
40837;SDS011;29632;49.168;9.848;2023-10-09T02:51:49;9.03;;;3.97;;
40837;SDS011;29632;49.168;9.848;2023-10-09T02:54:18;12.53;;;4.63;;
40837;SDS011;29632;49.168;9.848;2023-10-09T02:56:47;11.20;;;4.73;;
40837;SDS011;29632;49.168;9.848;2023-10-09T02:59:30;10.47;;;4.00;;
40837;SDS011;29632;49.168;9.848;2023-10-09T03:01:56;10.80;;;4.10;;
40837;SDS011;29632;49.168;9.848;2023-10-09T03:04:24;9.97;;;4.07;;
40837;SDS011;29632;49.168;9.848;2023-10-09T03:06:59;14.30;;;4.67;;
40837;SDS011;29632;49.168;9.848;2023-10-09T03:09:26;13.07;;;4.85;;
40837;SDS011;29632;49.168;9.848;2023-10-09T03:11:53;10.73;;;3.47;;
40837;SDS011;29632;49.168;9.848;2023-10-09T03:14:27;10.57;;;4.50;;
40837;SDS011;29632;49.168;9.848;2023-10-09T03:16:54;14.07;;;4.80;;
40837;SDS011;29632;49.168;9.848;2023-10-09T03:19:25;11.05;;;4.07;;
40837;SDS011;29632;49.168;9.848;2023-10-09T03:21:52;13.73;;;4.03;;
40837;SDS011;29632;49.168;9.848;2023-10-09T03:24:18;12.93;;;4.33;;
40837;SDS011;29632;49.168;9.848;2023-10-09T03:26:45;14.70;;;4.60;;
40837;SDS011;29632;49.168;9.848;2023-10-09T03:29:10;11.57;;;4.43;;
40837;SDS011;29632;49.168;9.848;2023-10-09T03:31:37;12.47;;;3.50;;
40837;SDS011;29632;49.168;9.848;2023-10-09T03:34:06;12.97;;;4.63;;
40837;SDS011;29632;49.168;9.848;2023-10-09T03:36:35;10.77;;;4.43;;
40837;SDS011;29632;49.168;9.848;2023-10-09T03:39:05;10.67;;;3.57;;
40837;SDS011;29632;49.168;9.848;2023-10-09T03:41:49;13.20;;;4.30;;
40837;SDS011;29632;49.168;9.848;2023-10-09T03:44:16;12.47;;;4.43;;
40837;SDS011;29632;49.168;9.848;2023-10-09T03:46:45;9.03;;;3.77;;
40837;SDS011;29632;49.168;9.848;2023-10-09T03:49:11;8.80;;;4.50;;
40837;SDS011;29632;49.168;9.848;2023-10-09T03:51:38;12.27;;;4.03;;
40837;SDS011;29632;49.168;9.848;2023-10-09T03:54:04;14.43;;;5.47;;
40837;SDS011;29632;49.168;9.848;2023-10-09T03:56:34;8.30;;;3.47;;
40837;SDS011;29632;49.168;9.848;2023-10-09T03:59:00;12.43;;;4.20;;
40837;SDS011;29632;49.168;9.848;2023-10-09T04:01:29;12.30;;;4.43;;
40837;SDS011;29632;49.168;9.848;2023-10-09T04:03:57;10.90;;;4.13;;
40837;SDS011;29632;49.168;9.848;2023-10-09T04:06:25;13.60;;;4.87;;
40837;SDS011;29632;49.168;9.848;2023-10-09T04:08:58;10.53;;;3.93;;
40837;SDS011;29632;49.168;9.848;2023-10-09T04:11:44;11.10;;;4.13;;
40837;SDS011;29632;49.168;9.848;2023-10-09T04:14:32;9.43;;;3.97;;
40837;SDS011;29632;49.168;9.848;2023-10-09T04:17:01;12.63;;;4.00;;
40837;SDS011;29632;49.168;9.848;2023-10-09T04:19:45;9.23;;;3.60;;
40837;SDS011;29632;49.168;9.848;2023-10-09T04:22:34;12.10;;;4.10;;
40837;SDS011;29632;49.168;9.848;2023-10-09T04:25:05;10.53;;;4.20;;
40837;SDS011;29632;49.168;9.848;2023-10-09T04:27:41;10.43;;;3.97;;
40837;SDS011;29632;49.168;9.848;2023-10-09T04:30:09;12.13;;;4.50;;
40837;SDS011;29632;49.168;9.848;2023-10-09T04:32:40;10.60;;;3.93;;
40837;SDS011;29632;49.168;9.848;2023-10-09T04:35:10;11.90;;;3.53;;
40837;SDS011;29632;49.168;9.848;2023-10-09T04:37:49;12.17;;;4.47;;
40837;SDS011;29632;49.168;9.848;2023-10-09T04:40:24;11.37;;;4.27;;
40837;SDS011;29632;49.168;9.848;2023-10-09T04:43:03;9.30;;;3.50;;
40837;SDS011;29632;49.168;9.848;2023-10-09T04:45:38;12.13;;;3.73;;
40837;SDS011;29632;49.168;9.848;2023-10-09T04:48:22;9.70;;;3.90;;
40837;SDS011;29632;49.168;9.848;2023-10-09T04:51:17;12.73;;;3.70;;
40837;SDS011;29632;49.168;9.848;2023-10-09T04:53:46;8.80;;;3.60;;
40837;SDS011;29632;49.168;9.848;2023-10-09T04:56:16;11.00;;;4.68;;
40837;SDS011;29632;49.168;9.848;2023-10-09T04:58:41;12.67;;;4.67;;
40837;SDS011;29632;49.168;9.848;2023-10-09T05:01:09;13.30;;;3.60;;
40837;SDS011;29632;49.168;9.848;2023-10-09T05:03:40;15.15;;;5.13;;
40837;SDS011;29632;49.168;9.848;2023-10-09T05:06:06;15.00;;;4.40;;
40837;SDS011;29632;49.168;9.848;2023-10-09T05:08:51;10.17;;;3.90;;
40837;SDS011;29632;49.168;9.848;2023-10-09T05:11:21;12.43;;;4.57;;
40837;SDS011;29632;49.168;9.848;2023-10-09T05:14:18;12.93;;;4.90;;
40837;SDS011;29632;49.168;9.848;2023-10-09T05:17:03;10.70;;;3.70;;
40837;SDS011;29632;49.168;9.848;2023-10-09T05:19:34;13.03;;;3.87;;
40837;SDS011;29632;49.168;9.848;2023-10-09T05:22:29;11.20;;;4.53;;
40837;SDS011;29632;49.168;9.848;2023-10-09T05:24:58;11.73;;;4.13;;
40837;SDS011;29632;49.168;9.848;2023-10-09T05:27:24;11.10;;;3.87;;
40837;SDS011;29632;49.168;9.848;2023-10-09T05:30:10;7.80;;;3.30;;
40837;SDS011;29632;49.168;9.848;2023-10-09T05:32:52;11.07;;;3.37;;
40837;SDS011;29632;49.168;9.848;2023-10-09T05:35:29;11.80;;;4.23;;
40837;SDS011;29632;49.168;9.848;2023-10-09T05:38:05;14.20;;;4.70;;
40837;SDS011;29632;49.168;9.848;2023-10-09T05:40:48;13.40;;;4.23;;
40837;SDS011;29632;49.168;9.848;2023-10-09T05:46:04;12.83;;;4.53;;
40837;SDS011;29632;49.168;9.848;2023-10-09T05:48:34;11.35;;;3.78;;
40837;SDS011;29632;49.168;9.848;2023-10-09T05:51:04;8.23;;;4.00;;
40837;SDS011;29632;49.168;9.848;2023-10-09T05:53:37;9.07;;;3.70;;
40837;SDS011;29632;49.168;9.848;2023-10-09T05:56:09;11.47;;;3.53;;
40837;SDS011;29632;49.168;9.848;2023-10-09T05:58:56;15.27;;;4.47;;
40837;SDS011;29632;49.168;9.848;2023-10-09T06:01:31;10.23;;;3.60;;
40837;SDS011;29632;49.168;9.848;2023-10-09T06:04:05;12.37;;;4.30;;
40837;SDS011;29632;49.168;9.848;2023-10-09T06:06:40;10.07;;;3.53;;
40837;SDS011;29632;49.168;9.848;2023-10-09T06:09:13;10.75;;;4.40;;
40837;SDS011;29632;49.168;9.848;2023-10-09T06:14:19;12.27;;;3.97;;
40837;SDS011;29632;49.168;9.848;2023-10-09T06:16:55;11.47;;;3.67;;
40837;SDS011;29632;49.168;9.848;2023-10-09T06:19:26;9.90;;;4.60;;
40837;SDS011;29632;49.168;9.848;2023-10-09T06:21:57;14.80;;;3.77;;
40837;SDS011;29632;49.168;9.848;2023-10-09T06:24:36;17.15;;;5.20;;
40837;SDS011;29632;49.168;9.848;2023-10-09T06:27:18;10.50;;;4.30;;
40837;SDS011;29632;49.168;9.848;2023-10-09T06:29:57;13.33;;;4.27;;
40837;SDS011;29632;49.168;9.848;2023-10-09T06:32:42;15.67;;;4.77;;
40837;SDS011;29632;49.168;9.848;2023-10-09T06:35:20;12.90;;;4.40;;
40837;SDS011;29632;49.168;9.848;2023-10-09T06:37:55;13.60;;;4.00;;
40837;SDS011;29632;49.168;9.848;2023-10-09T06:40:35;12.07;;;4.13;;
40837;SDS011;29632;49.168;9.848;2023-10-09T06:43:21;10.13;;;3.60;;
40837;SDS011;29632;49.168;9.848;2023-10-09T06:45:51;12.53;;;4.77;;
40837;SDS011;29632;49.168;9.848;2023-10-09T06:48:22;10.40;;;4.13;;
40837;SDS011;29632;49.168;9.848;2023-10-09T06:51:08;14.87;;;3.43;;
40837;SDS011;29632;49.168;9.848;2023-10-09T06:53:51;10.40;;;4.33;;
40837;SDS011;29632;49.168;9.848;2023-10-09T06:56:18;10.67;;;3.37;;
40837;SDS011;29632;49.168;9.848;2023-10-09T06:59:03;12.57;;;3.47;;
40837;SDS011;29632;49.168;9.848;2023-10-09T07:01:41;13.73;;;4.47;;
40837;SDS011;29632;49.168;9.848;2023-10-09T07:04:14;13.03;;;4.23;;
40837;SDS011;29632;49.168;9.848;2023-10-09T07:06:58;14.35;;;4.57;;
40837;SDS011;29632;49.168;9.848;2023-10-09T07:09:24;14.23;;;4.33;;
40837;SDS011;29632;49.168;9.848;2023-10-09T07:12:07;17.70;;;4.47;;
40837;SDS011;29632;49.168;9.848;2023-10-09T07:14:51;10.73;;;3.83;;
40837;SDS011;29632;49.168;9.848;2023-10-09T07:17:32;10.40;;;3.73;;
40837;SDS011;29632;49.168;9.848;2023-10-09T07:19:57;16.47;;;4.33;;
40837;SDS011;29632;49.168;9.848;2023-10-09T07:22:34;11.53;;;3.97;;
40837;SDS011;29632;49.168;9.848;2023-10-09T07:25:04;13.55;;;3.75;;
40837;SDS011;29632;49.168;9.848;2023-10-09T07:27:52;11.50;;;3.53;;
40837;SDS011;29632;49.168;9.848;2023-10-09T07:30:20;13.47;;;3.97;;
40837;SDS011;29632;49.168;9.848;2023-10-09T07:35:36;9.43;;;3.80;;
40837;SDS011;29632;49.168;9.848;2023-10-09T07:38:10;17.07;;;4.83;;
40837;SDS011;29632;49.168;9.848;2023-10-09T07:40:53;15.07;;;4.27;;
40837;SDS011;29632;49.168;9.848;2023-10-09T07:43:20;13.67;;;4.17;;
40837;SDS011;29632;49.168;9.848;2023-10-09T07:46:08;12.90;;;3.80;;
40837;SDS011;29632;49.168;9.848;2023-10-09T07:48:59;13.53;;;4.67;;
40837;SDS011;29632;49.168;9.848;2023-10-09T07:51:37;16.40;;;4.43;;
40837;SDS011;29632;49.168;9.848;2023-10-09T07:54:08;10.80;;;4.10;;
40837;SDS011;29632;49.168;9.848;2023-10-09T07:56:39;17.47;;;4.20;;
40837;SDS011;29632;49.168;9.848;2023-10-09T07:59:09;12.67;;;4.13;;
40837;SDS011;29632;49.168;9.848;2023-10-09T08:01:40;10.38;;;3.83;;
40837;SDS011;29632;49.168;9.848;2023-10-09T08:04:17;11.45;;;3.55;;
40837;SDS011;29632;49.168;9.848;2023-10-09T08:07:02;13.50;;;4.43;;
40837;SDS011;29632;49.168;9.848;2023-10-09T08:09:33;11.60;;;4.57;;
40837;SDS011;29632;49.168;9.848;2023-10-09T08:12:12;11.83;;;4.07;;
40837;SDS011;29632;49.168;9.848;2023-10-09T08:15:00;14.97;;;4.43;;
40837;SDS011;29632;49.168;9.848;2023-10-09T08:17:51;10.43;;;3.50;;
40837;SDS011;29632;49.168;9.848;2023-10-09T08:20:28;11.80;;;3.43;;
40837;SDS011;29632;49.168;9.848;2023-10-09T08:23:14;10.93;;;3.63;;
40837;SDS011;29632;49.168;9.848;2023-10-09T08:26:08;11.53;;;3.93;;
40837;SDS011;29632;49.168;9.848;2023-10-09T08:28:52;14.17;;;4.07;;
40837;SDS011;29632;49.168;9.848;2023-10-09T08:31:19;11.60;;;4.23;;
40837;SDS011;29632;49.168;9.848;2023-10-09T08:34:10;10.97;;;4.00;;
40837;SDS011;29632;49.168;9.848;2023-10-09T08:36:49;12.33;;;4.40;;
40837;SDS011;29632;49.168;9.848;2023-10-09T08:39:17;14.73;;;5.77;;
40837;SDS011;29632;49.168;9.848;2023-10-09T08:41:58;13.13;;;4.00;;
40837;SDS011;29632;49.168;9.848;2023-10-09T08:44:26;16.83;;;4.00;;
40837;SDS011;29632;49.168;9.848;2023-10-09T08:46:54;16.50;;;4.03;;
40837;SDS011;29632;49.168;9.848;2023-10-09T08:49:22;10.80;;;4.03;;
40837;SDS011;29632;49.168;9.848;2023-10-09T08:51:51;14.20;;;3.73;;
40837;SDS011;29632;49.168;9.848;2023-10-09T08:54:17;13.63;;;4.17;;
40837;SDS011;29632;49.168;9.848;2023-10-09T08:56:47;10.60;;;3.40;;
40837;SDS011;29632;49.168;9.848;2023-10-09T08:59:16;17.27;;;4.10;;
40837;SDS011;29632;49.168;9.848;2023-10-09T09:01:46;12.67;;;4.00;;
40837;SDS011;29632;49.168;9.848;2023-10-09T09:04:33;14.10;;;4.77;;
40837;SDS011;29632;49.168;9.848;2023-10-09T09:07:07;12.23;;;4.07;;
40837;SDS011;29632;49.168;9.848;2023-10-09T09:09:59;11.90;;;4.15;;
40837;SDS011;29632;49.168;9.848;2023-10-09T09:12:42;10.17;;;3.50;;
40837;SDS011;29632;49.168;9.848;2023-10-09T09:15:13;16.90;;;4.10;;
40837;SDS011;29632;49.168;9.848;2023-10-09T09:17:51;18.27;;;4.07;;
40837;SDS011;29632;49.168;9.848;2023-10-09T09:20:34;9.83;;;3.70;;
40837;SDS011;29632;49.168;9.848;2023-10-09T09:23:02;14.93;;;3.57;;
40837;SDS011;29632;49.168;9.848;2023-10-09T09:28:10;13.43;;;3.07;;
40837;SDS011;29632;49.168;9.848;2023-10-09T09:30:37;14.37;;;3.83;;
40837;SDS011;29632;49.168;9.848;2023-10-09T09:33:24;13.37;;;3.57;;
40837;SDS011;29632;49.168;9.848;2023-10-09T09:36:04;13.43;;;3.50;;
40837;SDS011;29632;49.168;9.848;2023-10-09T09:38:33;8.90;;;3.80;;
40837;SDS011;29632;49.168;9.848;2023-10-09T09:41:07;11.40;;;3.93;;
40837;SDS011;29632;49.168;9.848;2023-10-09T09:43:34;13.40;;;3.23;;
40837;SDS011;29632;49.168;9.848;2023-10-09T09:46:05;14.13;;;4.07;;
40837;SDS011;29632;49.168;9.848;2023-10-09T09:48:39;8.87;;;3.50;;
40837;SDS011;29632;49.168;9.848;2023-10-09T09:51:09;8.63;;;3.80;;
40837;SDS011;29632;49.168;9.848;2023-10-09T09:53:38;21.48;;;4.32;;
40837;SDS011;29632;49.168;9.848;2023-10-09T09:56:05;9.73;;;3.07;;
40837;SDS011;29632;49.168;9.848;2023-10-09T09:58:32;12.00;;;3.93;;
40837;SDS011;29632;49.168;9.848;2023-10-09T10:01:08;8.00;;;2.47;;
40837;SDS011;29632;49.168;9.848;2023-10-09T10:03:54;13.03;;;4.10;;
40837;SDS011;29632;49.168;9.848;2023-10-09T10:06:27;10.57;;;2.83;;
40837;SDS011;29632;49.168;9.848;2023-10-09T10:08:57;18.63;;;3.87;;
40837;SDS011;29632;49.168;9.848;2023-10-09T10:14:13;21.45;;;4.45;;
40837;SDS011;29632;49.168;9.848;2023-10-09T10:17:08;16.67;;;5.00;;
40837;SDS011;29632;49.168;9.848;2023-10-09T10:22:26;10.93;;;3.40;;
40837;SDS011;29632;49.168;9.848;2023-10-09T10:24:55;9.80;;;3.33;;
40837;SDS011;29632;49.168;9.848;2023-10-09T10:27:22;17.30;;;4.10;;
40837;SDS011;29632;49.168;9.848;2023-10-09T10:35:16;10.83;;;4.13;;
40837;SDS011;29632;49.168;9.848;2023-10-09T10:37:45;16.40;;;4.00;;
40837;SDS011;29632;49.168;9.848;2023-10-09T10:40:26;9.73;;;3.50;;
40837;SDS011;29632;49.168;9.848;2023-10-09T10:43:06;12.07;;;3.67;;
40837;SDS011;29632;49.168;9.848;2023-10-09T10:45:39;13.07;;;3.30;;
40837;SDS011;29632;49.168;9.848;2023-10-09T10:48:11;10.47;;;3.07;;
40837;SDS011;29632;49.168;9.848;2023-10-09T10:51:03;8.80;;;3.17;;
40837;SDS011;29632;49.168;9.848;2023-10-09T10:53:36;12.87;;;3.60;;
40837;SDS011;29632;49.168;9.848;2023-10-09T10:56:14;9.13;;;3.57;;
40837;SDS011;29632;49.168;9.848;2023-10-09T10:58:40;10.63;;;3.43;;
40837;SDS011;29632;49.168;9.848;2023-10-09T11:01:19;11.07;;;3.27;;
40837;SDS011;29632;49.168;9.848;2023-10-09T11:03:48;11.40;;;3.57;;
40837;SDS011;29632;49.168;9.848;2023-10-09T11:06:29;9.03;;;3.33;;
40837;SDS011;29632;49.168;9.848;2023-10-09T11:09:06;15.97;;;3.37;;
40837;SDS011;29632;49.168;9.848;2023-10-09T11:12:03;10.63;;;3.13;;
40837;SDS011;29632;49.168;9.848;2023-10-09T11:14:47;11.53;;;3.43;;
40837;SDS011;29632;49.168;9.848;2023-10-09T11:17:33;14.53;;;3.93;;
40837;SDS011;29632;49.168;9.848;2023-10-09T11:20:03;8.95;;;2.70;;
40837;SDS011;29632;49.168;9.848;2023-10-09T11:22:50;8.60;;;3.20;;
40837;SDS011;29632;49.168;9.848;2023-10-09T11:25:35;10.07;;;3.13;;
40837;SDS011;29632;49.168;9.848;2023-10-09T11:30:43;10.67;;;3.33;;
40837;SDS011;29632;49.168;9.848;2023-10-09T11:33:11;9.23;;;4.10;;
40837;SDS011;29632;49.168;9.848;2023-10-09T11:35:39;14.10;;;4.07;;
40837;SDS011;29632;49.168;9.848;2023-10-09T11:38:08;9.57;;;3.07;;
40837;SDS011;29632;49.168;9.848;2023-10-09T11:40:46;10.33;;;4.17;;
40837;SDS011;29632;49.168;9.848;2023-10-09T11:43:18;7.43;;;3.00;;
40837;SDS011;29632;49.168;9.848;2023-10-09T11:46:09;10.50;;;3.10;;
40837;SDS011;29632;49.168;9.848;2023-10-09T11:49:05;10.33;;;2.87;;
40837;SDS011;29632;49.168;9.848;2023-10-09T11:52:04;10.00;;;3.23;;
40837;SDS011;29632;49.168;9.848;2023-10-09T11:54:34;7.83;;;2.87;;
40837;SDS011;29632;49.168;9.848;2023-10-09T11:57:01;8.67;;;2.90;;
40837;SDS011;29632;49.168;9.848;2023-10-09T11:59:30;9.53;;;3.13;;
40837;SDS011;29632;49.168;9.848;2023-10-09T12:02:09;9.47;;;3.73;;
40837;SDS011;29632;49.168;9.848;2023-10-09T12:04:38;12.10;;;3.83;;
40837;SDS011;29632;49.168;9.848;2023-10-09T12:07:10;12.73;;;3.40;;
40837;SDS011;29632;49.168;9.848;2023-10-09T12:09:39;14.73;;;3.50;;
40837;SDS011;29632;49.168;9.848;2023-10-09T12:12:05;14.60;;;4.17;;
40837;SDS011;29632;49.168;9.848;2023-10-09T12:14:33;10.80;;;3.27;;
40837;SDS011;29632;49.168;9.848;2023-10-09T12:17:03;11.37;;;3.30;;
40837;SDS011;29632;49.168;9.848;2023-10-09T12:19:36;10.13;;;3.33;;
40837;SDS011;29632;49.168;9.848;2023-10-09T12:22:04;9.77;;;3.63;;
40837;SDS011;29632;49.168;9.848;2023-10-09T12:24:35;7.43;;;2.80;;
40837;SDS011;29632;49.168;9.848;2023-10-09T12:27:02;8.43;;;2.83;;
40837;SDS011;29632;49.168;9.848;2023-10-09T12:29:34;7.73;;;2.87;;
40837;SDS011;29632;49.168;9.848;2023-10-09T12:32:00;8.17;;;2.97;;
40837;SDS011;29632;49.168;9.848;2023-10-09T12:34:27;14.53;;;3.70;;
40837;SDS011;29632;49.168;9.848;2023-10-09T12:36:56;13.37;;;3.43;;
40837;SDS011;29632;49.168;9.848;2023-10-09T12:39:26;11.97;;;3.93;;
40837;SDS011;29632;49.168;9.848;2023-10-09T12:41:58;16.77;;;4.30;;
40837;SDS011;29632;49.168;9.848;2023-10-09T12:44:31;10.87;;;3.60;;
40837;SDS011;29632;49.168;9.848;2023-10-09T12:47:03;10.53;;;3.37;;
40837;SDS011;29632;49.168;9.848;2023-10-09T12:49:31;10.93;;;4.47;;
40837;SDS011;29632;49.168;9.848;2023-10-09T12:51:56;11.77;;;4.00;;
40837;SDS011;29632;49.168;9.848;2023-10-09T12:54:25;10.30;;;3.60;;
40837;SDS011;29632;49.168;9.848;2023-10-09T12:56:54;9.27;;;2.53;;
40837;SDS011;29632;49.168;9.848;2023-10-09T12:59:20;9.32;;;3.75;;
40837;SDS011;29632;49.168;9.848;2023-10-09T13:01:46;8.93;;;3.37;;
40837;SDS011;29632;49.168;9.848;2023-10-09T13:04:17;11.20;;;3.35;;
40837;SDS011;29632;49.168;9.848;2023-10-09T13:06:47;11.80;;;4.18;;
40837;SDS011;29632;49.168;9.848;2023-10-09T13:09:17;19.80;;;3.80;;
40837;SDS011;29632;49.168;9.848;2023-10-09T13:11:50;8.43;;;3.17;;
40837;SDS011;29632;49.168;9.848;2023-10-09T13:14:16;6.72;;;3.35;;
40837;SDS011;29632;49.168;9.848;2023-10-09T13:16:42;9.80;;;3.22;;
40837;SDS011;29632;49.168;9.848;2023-10-09T13:19:08;9.85;;;3.80;;
40837;SDS011;29632;49.168;9.848;2023-10-09T13:21:35;9.52;;;3.53;;
40837;SDS011;29632;49.168;9.848;2023-10-09T13:24:04;8.30;;;3.38;;
40837;SDS011;29632;49.168;9.848;2023-10-09T13:26:30;7.00;;;3.33;;
40837;SDS011;29632;49.168;9.848;2023-10-09T13:28:58;7.57;;;3.70;;
40837;SDS011;29632;49.168;9.848;2023-10-09T13:31:24;9.95;;;3.95;;
40837;SDS011;29632;49.168;9.848;2023-10-09T13:33:54;5.90;;;3.20;;
40837;SDS011;29632;49.168;9.848;2023-10-09T13:36:24;6.90;;;3.50;;
40837;SDS011;29632;49.168;9.848;2023-10-09T13:38:54;8.85;;;3.20;;
40837;SDS011;29632;49.168;9.848;2023-10-09T13:41:21;13.15;;;4.18;;
40837;SDS011;29632;49.168;9.848;2023-10-09T13:46:16;9.98;;;3.40;;
40837;SDS011;29632;49.168;9.848;2023-10-09T13:48:43;11.52;;;3.35;;
40837;SDS011;29632;49.168;9.848;2023-10-09T13:51:10;13.52;;;4.32;;
40837;SDS011;29632;49.168;9.848;2023-10-09T13:53:43;10.65;;;3.97;;
40837;SDS011;29632;49.168;9.848;2023-10-09T13:56:11;8.93;;;3.28;;
40837;SDS011;29632;49.168;9.848;2023-10-09T13:58:45;12.18;;;3.85;;
40837;SDS011;29632;49.168;9.848;2023-10-09T14:01:19;12.18;;;3.80;;
40837;SDS011;29632;49.168;9.848;2023-10-09T14:03:59;8.52;;;3.53;;
40837;SDS011;29632;49.168;9.848;2023-10-09T14:06:25;10.10;;;4.22;;
40837;SDS011;29632;49.168;9.848;2023-10-09T14:09:05;9.60;;;3.67;;
40837;SDS011;29632;49.168;9.848;2023-10-09T14:11:34;11.75;;;4.43;;
40837;SDS011;29632;49.168;9.848;2023-10-09T14:14:04;12.27;;;3.75;;
40837;SDS011;29632;49.168;9.848;2023-10-09T14:16:35;10.75;;;4.00;;
40837;SDS011;29632;49.168;9.848;2023-10-09T14:19:02;12.15;;;4.57;;
40837;SDS011;29632;49.168;9.848;2023-10-09T14:21:33;7.93;;;3.85;;
40837;SDS011;29632;49.168;9.848;2023-10-09T14:24:06;10.20;;;4.28;;
40837;SDS011;29632;49.168;9.848;2023-10-09T14:26:40;9.30;;;3.95;;
40837;SDS011;29632;49.168;9.848;2023-10-09T14:29:07;9.05;;;3.95;;
40837;SDS011;29632;49.168;9.848;2023-10-09T14:31:33;14.63;;;5.35;;
40837;SDS011;29632;49.168;9.848;2023-10-09T14:34:04;15.52;;;6.43;;
40837;SDS011;29632;49.168;9.848;2023-10-09T14:36:30;13.35;;;4.47;;
40837;SDS011;29632;49.168;9.848;2023-10-09T14:38:59;9.13;;;3.70;;
40837;SDS011;29632;49.168;9.848;2023-10-09T14:41:26;9.13;;;4.05;;
40837;SDS011;29632;49.168;9.848;2023-10-09T14:43:53;8.68;;;3.92;;
40837;SDS011;29632;49.168;9.848;2023-10-09T14:46:20;13.55;;;4.13;;
40837;SDS011;29632;49.168;9.848;2023-10-09T14:48:53;10.27;;;4.20;;
40837;SDS011;29632;49.168;9.848;2023-10-09T14:51:20;11.27;;;3.88;;
40837;SDS011;29632;49.168;9.848;2023-10-09T14:53:53;10.02;;;4.07;;
40837;SDS011;29632;49.168;9.848;2023-10-09T14:56:24;8.68;;;3.90;;
40837;SDS011;29632;49.168;9.848;2023-10-09T14:58:58;27.52;;;13.65;;
40837;SDS011;29632;49.168;9.848;2023-10-09T15:01:25;36.63;;;17.92;;
40837;SDS011;29632;49.168;9.848;2023-10-09T15:03:54;24.80;;;11.98;;
40837;SDS011;29632;49.168;9.848;2023-10-09T15:06:26;18.57;;;9.77;;
40837;SDS011;29632;49.168;9.848;2023-10-09T15:08:53;20.05;;;8.43;;
40837;SDS011;29632;49.168;9.848;2023-10-09T15:11:26;22.00;;;10.50;;
40837;SDS011;29632;49.168;9.848;2023-10-09T15:13:54;15.27;;;6.43;;
40837;SDS011;29632;49.168;9.848;2023-10-09T15:16:22;10.55;;;4.05;;
40837;SDS011;29632;49.168;9.848;2023-10-09T15:18:51;12.07;;;4.60;;
40837;SDS011;29632;49.168;9.848;2023-10-09T15:21:19;10.73;;;4.47;;
40837;SDS011;29632;49.168;9.848;2023-10-09T15:23:51;17.85;;;4.35;;
40837;SDS011;29632;49.168;9.848;2023-10-09T15:26:21;12.85;;;4.07;;
40837;SDS011;29632;49.168;9.848;2023-10-09T15:28:49;13.13;;;4.10;;
40837;SDS011;29632;49.168;9.848;2023-10-09T15:31:19;9.20;;;3.45;;
40837;SDS011;29632;49.168;9.848;2023-10-09T15:33:46;7.65;;;3.60;;
40837;SDS011;29632;49.168;9.848;2023-10-09T15:38:43;12.30;;;4.25;;
40837;SDS011;29632;49.168;9.848;2023-10-09T15:41:09;10.15;;;5.18;;
40837;SDS011;29632;49.168;9.848;2023-10-09T15:43:35;13.27;;;5.32;;
40837;SDS011;29632;49.168;9.848;2023-10-09T15:46:01;11.20;;;4.55;;
40837;SDS011;29632;49.168;9.848;2023-10-09T15:48:27;12.57;;;5.20;;